Time;durP1;ratioP1;P1;durP2;ratioP2;P2;SDS_P1;SDS_P2;PMS_P1;PMS_P2;Temp;Humidity;BMP_temperature;BMP_pressure;BME280_temperature;BME280_humidity;BME280_pressure;Samples;Min_cycle;Max_cycle;Signal;HPM_P1;HPM_P2
2022/01/07 00:01:08;;;;;;;;;;;4.00;96.40;;;;;;5052046;28;20224;-69
2022/01/07 00:03:34;;;;;;;;;;;4.00;96.40;;;;;;5050015;28;20455;-69
2022/01/07 00:06:00;;;;;;;;;;;4.00;96.40;;;;;;5049256;28;19913;-69
2022/01/07 00:08:26;;;;;;;;;;;4.00;96.40;;;;;;5036702;28;20012;-69
2022/01/07 00:10:51;;;;;;;;;;;4.00;96.30;;;;;;5048793;28;19996;-69
2022/01/07 00:13:17;;;;;;;;;;;4.00;96.40;;;;;;5047956;28;20004;-69
2022/01/07 00:15:44;;;;;;;;;;;4.00;96.30;;;;;;5049837;28;20449;-69
2022/01/07 00:18:09;;;;;;;;;;;4.00;96.40;;;;;;5047232;28;19923;-69
2022/01/07 00:20:35;;;;;;;;;;;4.00;96.30;;;;;;5051101;28;20301;-69
2022/01/07 00:23:01;;;;;;;;;;;4.00;96.30;;;;;;5051892;28;19913;-69
2022/01/07 00:25:26;;;;;;;;;;;4.00;96.30;;;;;;5055932;28;19962;-69
2022/01/07 00:27:52;;;;;;;;;;;4.00;96.30;;;;;;5053267;28;20070;-69
2022/01/07 00:30:18;;;;;;;;;;;4.00;96.30;;;;;;5049606;28;19916;-69
2022/01/07 00:32:44;;;;;;;;;;;4.00;96.30;;;;;;5032343;28;19943;-69
2022/01/07 00:35:11;;;;;;;;;;;4.00;96.30;;;;;;5032742;28;19909;-69
2022/01/07 00:37:37;;;;;;;;;;;4.00;96.30;;;;;;5048205;28;20361;-69
2022/01/07 00:40:03;;;;;;;;;;;4.00;96.30;;;;;;5065919;28;19962;-69
2022/01/07 00:42:29;;;;;;;;;;;4.00;96.20;;;;;;5051029;28;19912;-69
2022/01/07 00:44:54;;;;;;;;;;;4.00;96.20;;;;;;5049636;28;19959;-69
2022/01/07 00:47:20;;;;;;;;;;;4.00;96.40;;;;;;5048526;28;20331;-69
2022/01/07 00:49:45;;;;;;;;;;;4.00;96.00;;;;;;5050441;28;19909;-69
2022/01/07 00:52:11;;;;;;;;;;;4.00;96.50;;;;;;5050416;28;20348;-69
2022/01/07 00:54:37;;;;;;;;;;;4.00;96.30;;;;;;5036126;28;20012;-69
2022/01/07 00:57:02;;;;;;;;;;;4.00;96.30;;;;;;5050320;28;19960;-69
2022/01/07 00:59:28;;;;;;;;;;;4.00;96.30;;;;;;5048758;28;19917;-69
2022/01/07 01:01:54;;;;;;;;;;;4.00;96.30;;;;;;5049608;28;19924;-69
2022/01/07 01:04:19;;;;;;;;;;;4.00;96.20;;;;;;5051683;28;20373;-69
2022/01/07 01:06:45;;;;;;;;;;;4.00;96.30;;;;;;5047267;28;20467;-69
2022/01/07 01:09:12;;;;;;;;;;;4.10;96.20;;;;;;5063779;28;19952;-69
2022/01/07 01:11:37;;;;;;;;;;;4.00;96.30;;;;;;5041647;28;19992;-69
2022/01/07 01:14:03;;;;;;;;;;;4.00;96.20;;;;;;5054894;28;20665;-69
2022/01/07 01:16:29;;;;;;;;;;;4.10;96.20;;;;;;5028662;28;20255;-69
2022/01/07 01:18:55;;;;;;;;;;;4.00;96.20;;;;;;5048314;28;19913;-69
2022/01/07 01:21:20;;;;;;;;;;;4.00;96.30;;;;;;5049601;28;20335;-69
2022/01/07 01:23:46;;;;;;;;;;;4.00;96.30;;;;;;5029530;28;19970;-69
2022/01/07 01:26:12;;;;;;;;;;;4.00;96.20;;;;;;5051869;28;19982;-69
2022/01/07 01:28:38;;;;;;;;;;;4.00;96.20;;;;;;5048651;28;19943;-69
2022/01/07 01:31:04;;;;;;;;;;;4.00;96.10;;;;;;5048017;28;19952;-69
2022/01/07 01:33:29;;;;;;;;;;;4.00;96.30;;;;;;5045647;28;19966;-69
2022/01/07 01:35:55;;;;;;;;;;;4.00;96.30;;;;;;5050029;28;19924;-69
2022/01/07 01:38:20;;;;;;;;;;;4.00;96.20;;;;;;5050120;28;19928;-69
2022/01/07 01:40:46;;;;;;;;;;;4.00;96.30;;;;;;5048381;28;20338;-69
2022/01/07 01:43:11;;;;;;;;;;;4.00;96.30;;;;;;5048066;28;20001;-69
2022/01/07 01:45:37;;;;;;;;;;;4.00;96.30;;;;;;5055862;28;19995;-69
2022/01/07 01:48:02;;;;;;;;;;;4.00;96.50;;;;;;5051120;28;19912;-69
2022/01/07 01:50:28;;;;;;;;;;;4.00;96.30;;;;;;5049497;28;20290;-69
2022/01/07 01:52:55;;;;;;;;;;;4.00;96.10;;;;;;5049830;28;20357;-69
2022/01/07 01:55:21;;;;;;;;;;;4.00;96.20;;;;;;5051615;28;19935;-69
2022/01/07 01:57:47;;;;;;;;;;;4.00;96.30;;;;;;5050669;28;19970;-69
2022/01/07 02:00:13;;;;;;;;;;;4.00;96.20;;;;;;5030694;28;20025;-69
2022/01/07 02:02:39;;;;;;;;;;;4.00;96.10;;;;;;5039336;28;19959;-69
2022/01/07 02:05:04;;;;;;;;;;;4.00;96.20;;;;;;5049217;28;20011;-69
2022/01/07 02:07:31;;;;;;;;;;;4.00;96.20;;;;;;5051569;28;19917;-69
2022/01/07 02:09:57;;;;;;;;;;;4.00;96.40;;;;;;5048846;28;20007;-69
2022/01/07 02:12:22;;;;;;;;;;;4.00;96.20;;;;;;5048391;28;20003;-69
2022/01/07 02:14:52;;;;;;;;;;;4.00;96.30;;;;;;5046279;28;19935;-69
2022/01/07 02:17:17;;;;;;;;;;;4.00;96.30;;;;;;5055064;28;19909;-69
2022/01/07 02:19:43;;;;;;;;;;;4.10;96.30;;;;;;5051644;28;19919;-69
2022/01/07 02:22:08;;;;;;;;;;;4.10;96.30;;;;;;5049982;28;19932;-69
2022/01/07 02:24:35;;;;;;;;;;;4.00;96.10;;;;;;5058034;28;19912;-69
2022/01/07 02:27:01;;;;;;;;;;;4.00;96.30;;;;;;5052586;28;20007;-69
2022/01/07 02:29:27;;;;;;;;;;;4.00;96.10;;;;;;5052266;28;20412;-69
2022/01/07 02:31:52;;;;;;;;;;;4.00;96.20;;;;;;5051010;28;19917;-69
2022/01/07 02:34:18;;;;;;;;;;;4.00;96.20;;;;;;5054266;28;20285;-69
2022/01/07 02:36:43;;;;;;;;;;;4.00;96.20;;;;;;5052542;28;20297;-69
2022/01/07 02:39:09;;;;;;;;;;;4.00;96.40;;;;;;5056008;28;19917;-69
2022/01/07 02:41:34;;;;;;;;;;;4.00;96.30;;;;;;5050537;28;19909;-69
2022/01/07 02:44:00;;;;;;;;;;;4.00;96.30;;;;;;5052469;28;19931;-69
2022/01/07 02:46:25;;;;;;;;;;;4.00;96.30;;;;;;5052214;28;20473;-69
2022/01/07 02:48:51;;;;;;;;;;;4.00;96.30;;;;;;5053866;28;20344;-69
2022/01/07 02:51:16;;;;;;;;;;;4.00;96.30;;;;;;5051824;28;19913;-69
2022/01/07 02:53:42;;;;;;;;;;;4.10;96.30;;;;;;5050782;28;19917;-69
2022/01/07 02:56:08;;;;;;;;;;;4.10;96.30;;;;;;5067102;28;19913;-69
2022/01/07 02:58:34;;;;;;;;;;;4.10;96.30;;;;;;5051502;28;19999;-69
2022/01/07 03:00:59;;;;;;;;;;;4.10;96.30;;;;;;5053538;28;19912;-69
2022/01/07 03:03:25;;;;;;;;;;;4.10;96.30;;;;;;5036657;28;19952;-69
2022/01/07 03:05:50;;;;;;;;;;;4.00;96.20;;;;;;5052814;28;19908;-69
2022/01/07 03:08:16;;;;;;;;;;;4.00;96.20;;;;;;5049668;28;19916;-69
2022/01/07 03:10:41;;;;;;;;;;;4.10;96.30;;;;;;5051971;28;20350;-69
2022/01/07 03:13:09;;;;;;;;;;;4.00;96.20;;;;;;5051719;28;19928;-69
2022/01/07 03:15:37;;;;;;;;;;;4.10;96.30;;;;;;5055752;28;19912;-69
2022/01/07 03:18:02;;;;;;;;;;;4.00;96.30;;;;;;5054468;28;19921;-69
2022/01/07 03:20:28;;;;;;;;;;;4.10;96.30;;;;;;5051749;28;19916;-69
2022/01/07 03:22:53;;;;;;;;;;;4.10;96.30;;;;;;5052123;28;19917;-69
2022/01/07 03:25:19;;;;;;;;;;;4.10;96.20;;;;;;5069351;28;20016;-69
2022/01/07 03:27:44;;;;;;;;;;;4.10;96.30;;;;;;5060425;28;19960;-69
2022/01/07 03:30:10;;;;;;;;;;;4.10;96.20;;;;;;5049859;28;19912;-69
2022/01/07 03:32:36;;;;;;;;;;;4.10;96.20;;;;;;5053118;28;20722;-69
2022/01/07 03:35:02;;;;;;;;;;;4.10;96.20;;;;;;5055451;28;20000;-69
2022/01/07 03:37:28;;;;;;;;;;;4.00;96.30;;;;;;5055383;28;19956;-69
2022/01/07 03:39:53;;;;;;;;;;;4.10;96.30;;;;;;5051436;28;20316;-69
2022/01/07 03:42:19;;;;;;;;;;;4.00;96.20;;;;;;5049277;28;19925;-69
2022/01/07 03:44:44;;;;;;;;;;;4.10;96.30;;;;;;5051160;28;19976;-69
2022/01/07 03:47:10;;;;;;;;;;;4.10;96.20;;;;;;5047191;28;19917;-69
2022/01/07 03:49:35;;;;;;;;;;;4.00;96.30;;;;;;5047269;28;19953;-69
2022/01/07 03:52:01;;;;;;;;;;;4.10;96.30;;;;;;5041391;28;20400;-69
2022/01/07 03:54:26;;;;;;;;;;;4.10;96.20;;;;;;5055122;28;19963;-69
2022/01/07 03:56:52;;;;;;;;;;;4.10;96.30;;;;;;5056754;28;19937;-69
2022/01/07 03:59:17;;;;;;;;;;;4.10;96.30;;;;;;5055266;28;19909;-69
2022/01/07 04:01:43;;;;;;;;;;;4.10;96.30;;;;;;5052373;28;20383;-69
2022/01/07 04:04:08;;;;;;;;;;;4.10;96.30;;;;;;5053262;28;20351;-69
2022/01/07 04:06:34;;;;;;;;;;;4.00;96.30;;;;;;5054012;28;19950;-69
2022/01/07 04:08:59;;;;;;;;;;;4.10;96.20;;;;;;5058407;28;19908;-69
2022/01/07 04:11:25;;;;;;;;;;;4.10;96.30;;;;;;5046085;28;20573;-69
2022/01/07 04:13:50;;;;;;;;;;;4.10;96.30;;;;;;5050369;28;19923;-69
2022/01/07 04:16:16;;;;;;;;;;;4.10;96.20;;;;;;5057876;28;19920;-69
2022/01/07 04:18:41;;;;;;;;;;;4.10;96.30;;;;;;5033463;28;19917;-69
2022/01/07 04:21:07;;;;;;;;;;;4.10;96.30;;;;;;5050942;28;19928;-69
2022/01/07 04:23:32;;;;;;;;;;;4.10;96.30;;;;;;5050491;28;19913;-69
2022/01/07 04:25:58;;;;;;;;;;;4.10;96.30;;;;;;5054230;28;19917;-69
2022/01/07 04:28:23;;;;;;;;;;;4.10;96.20;;;;;;5056323;28;20035;-69
2022/01/07 04:30:49;;;;;;;;;;;4.00;96.30;;;;;;5049607;28;20015;-69
2022/01/07 04:33:21;;;;;;;;;;;4.10;96.30;;;;;;5053906;28;20026;-69
2022/01/07 04:35:47;;;;;;;;;;;4.10;96.30;;;;;;5046403;28;20317;-69
2022/01/07 04:38:13;;;;;;;;;;;4.10;96.20;;;;;;5049984;28;19917;-69
2022/01/07 04:40:38;;;;;;;;;;;4.10;96.40;;;;;;5057587;28;19916;-69
2022/01/07 04:43:04;;;;;;;;;;;4.10;96.30;;;;;;5047783;28;19970;-69
2022/01/07 04:45:30;;;;;;;;;;;4.00;96.30;;;;;;5039102;28;19925;-69
2022/01/07 04:47:56;;;;;;;;;;;4.10;96.30;;;;;;5052468;28;20263;-69
2022/01/07 04:50:22;;;;;;;;;;;4.00;96.30;;;;;;5057142;28;19912;-69
2022/01/07 04:52:48;;;;;;;;;;;4.00;96.30;;;;;;5049370;28;20285;-69
2022/01/07 04:55:14;;;;;;;;;;;4.10;96.30;;;;;;5055413;28;19913;-69
2022/01/07 04:57:40;;;;;;;;;;;4.00;96.20;;;;;;5049654;28;19952;-69
2022/01/07 05:00:06;;;;;;;;;;;4.00;96.30;;;;;;5048533;28;19955;-69
2022/01/07 05:02:31;;;;;;;;;;;4.00;96.30;;;;;;5024922;28;19917;-69
2022/01/07 05:04:57;;;;;;;;;;;4.00;96.30;;;;;;5050488;28;20008;-69
2022/01/07 05:07:22;;;;;;;;;;;4.00;96.20;;;;;;5049775;28;20089;-69
2022/01/07 05:09:48;;;;;;;;;;;4.00;96.40;;;;;;5055200;28;19919;-69
2022/01/07 05:12:13;;;;;;;;;;;4.00;96.40;;;;;;5050937;28;19944;-69
2022/01/07 05:14:39;;;;;;;;;;;4.00;96.40;;;;;;5047846;28;19952;-70
2022/01/07 05:17:04;;;;;;;;;;;4.00;96.20;;;;;;5049453;28;19923;-69
2022/01/07 05:19:30;;;;;;;;;;;4.00;96.30;;;;;;5057582;28;19917;-69
2022/01/07 05:21:56;;;;;;;;;;;4.00;96.30;;;;;;5046902;28;19913;-69
2022/01/07 05:24:21;;;;;;;;;;;4.00;96.20;;;;;;5048875;28;19917;-69
2022/01/07 05:26:46;;;;;;;;;;;4.00;96.30;;;;;;5054468;28;20764;-69
2022/01/07 05:29:12;;;;;;;;;;;4.00;96.30;;;;;;5049970;28;19919;-69
2022/01/07 05:31:37;;;;;;;;;;;4.00;96.20;;;;;;5049960;28;19959;-69
2022/01/07 05:34:03;;;;;;;;;;;4.00;96.30;;;;;;5028572;28;19923;-69
2022/01/07 05:36:28;;;;;;;;;;;4.00;96.30;;;;;;5051448;28;21280;-69
2022/01/07 05:38:54;;;;;;;;;;;4.00;96.30;;;;;;5050872;28;20439;-69
2022/01/07 05:41:20;;;;;;;;;;;4.00;96.10;;;;;;5059819;28;19943;-69
2022/01/07 05:43:45;;;;;;;;;;;4.00;96.30;;;;;;5053315;28;19912;-69
2022/01/07 05:46:14;;;;;;;;;;;4.00;96.20;;;;;;5049238;28;20293;-69
2022/01/07 05:48:43;;;;;;;;;;;3.90;96.30;;;;;;5056504;28;20497;-69
2022/01/07 05:51:08;;;;;;;;;;;3.90;96.40;;;;;;5053475;28;19913;-69
2022/01/07 05:53:34;;;;;;;;;;;3.90;96.40;;;;;;5032424;28;19925;-69
2022/01/07 05:55:59;;;;;;;;;;;4.00;96.40;;;;;;5057439;28;20015;-69
2022/01/07 05:58:25;;;;;;;;;;;4.00;96.40;;;;;;5055393;28;19912;-69
2022/01/07 06:00:50;;;;;;;;;;;4.00;96.40;;;;;;5052453;28;20419;-69
2022/01/07 06:03:16;;;;;;;;;;;3.90;96.00;;;;;;5055927;28;19913;-69
2022/01/07 06:05:41;;;;;;;;;;;3.90;96.50;;;;;;5058184;28;19932;-69
2022/01/07 06:08:09;;;;;;;;;;;4.00;96.50;;;;;;5061695;28;19912;-69
2022/01/07 06:10:34;;;;;;;;;;;4.00;96.40;;;;;;5052020;28;19959;-69
2022/01/07 06:13:00;;;;;;;;;;;4.00;96.30;;;;;;5052954;28;19962;-69
2022/01/07 06:15:25;;;;;;;;;;;4.00;96.40;;;;;;5054464;28;20061;-69
2022/01/07 06:17:51;;;;;;;;;;;4.00;96.30;;;;;;5056901;28;19920;-69
2022/01/07 06:20:18;;;;;;;;;;;4.00;96.30;;;;;;5054797;28;19966;-69
2022/01/07 06:22:44;;;;;;;;;;;4.00;96.30;;;;;;5052848;28;19917;-69
2022/01/07 06:25:09;;;;;;;;;;;4.00;96.40;;;;;;5038947;28;19916;-69
2022/01/07 06:27:35;;;;;;;;;;;4.00;96.40;;;;;;5051539;28;19913;-69
2022/01/07 06:30:00;;;;;;;;;;;4.00;96.40;;;;;;5052506;28;19909;-69
2022/01/07 06:32:26;;;;;;;;;;;4.00;96.40;;;;;;5055726;28;19913;-69
2022/01/07 06:34:52;;;;;;;;;;;4.00;96.30;;;;;;5056588;28;19962;-69
2022/01/07 06:37:18;;;;;;;;;;;4.00;96.40;;;;;;5054816;28;20466;-69
2022/01/07 06:39:43;;;;;;;;;;;4.00;96.50;;;;;;5059952;28;19916;-69
2022/01/07 06:42:09;;;;;;;;;;;4.00;96.40;;;;;;5051560;28;19917;-69
2022/01/07 06:44:35;;;;;;;;;;;4.00;96.50;;;;;;5051165;28;20452;-69
2022/01/07 06:47:01;;;;;;;;;;;4.00;96.40;;;;;;5052492;28;20004;-69
2022/01/07 06:49:27;;;;;;;;;;;4.00;96.30;;;;;;5052608;28;20122;-69
2022/01/07 06:51:53;;;;;;;;;;;4.00;96.40;;;;;;5050976;28;20368;-69
2022/01/07 06:54:19;;;;;;;;;;;4.00;96.50;;;;;;5058557;28;19947;-69
2022/01/07 06:56:45;;;;;;;;;;;4.00;96.40;;;;;;5053326;28;20604;-69
2022/01/07 06:59:14;;;;;;;;;;;4.00;96.40;;;;;;5058394;28;20266;-69
2022/01/07 07:01:40;;;;;;;;;;;4.00;96.40;;;;;;5059426;28;20365;-69
2022/01/07 07:04:05;;;;;;;;;;;4.00;96.60;;;;;;5057286;28;19908;-69
2022/01/07 07:06:31;;;;;;;;;;;4.00;96.50;;;;;;5056395;28;19912;-69
2022/01/07 07:08:56;;;;;;;;;;;4.00;96.50;;;;;;5049333;28;19919;-69
2022/01/07 07:11:22;;;;;;;;;;;4.00;96.50;;;;;;5051653;28;19913;-69
2022/01/07 07:13:47;;;;;;;;;;;4.00;96.50;;;;;;5047819;28;19917;-69
2022/01/07 07:16:13;;;;;;;;;;;4.00;96.50;;;;;;5051516;28;19913;-69
2022/01/07 07:18:39;;;;;;;;;;;3.90;96.40;;;;;;5040672;28;20282;-69
2022/01/07 07:21:04;;;;;;;;;;;3.90;96.50;;;;;;5054843;28;19936;-69
2022/01/07 07:23:30;;;;;;;;;;;4.00;96.50;;;;;;5051287;28;19913;-69
2022/01/07 07:25:55;;;;;;;;;;;4.00;96.60;;;;;;5056967;28;19916;-69
2022/01/07 07:28:21;;;;;;;;;;;4.00;96.50;;;;;;5055959;28;20610;-69
2022/01/07 07:30:47;;;;;;;;;;;4.00;96.40;;;;;;5055397;28;19999;-69
2022/01/07 07:38:32;;;;;;;;;;;3.90;96.50;;;;;;5051305;28;19923;-69
2022/01/07 07:40:57;;;;;;;;;;;3.90;96.60;;;;;;5050275;28;19913;-69
2022/01/07 07:43:23;;;;;;;;;;;3.90;96.70;;;;;;5052766;28;19988;-69
2022/01/07 07:45:48;;;;;;;;;;;3.90;96.80;;;;;;5048218;28;20281;-69
2022/01/07 07:48:14;;;;;;;;;;;3.90;96.90;;;;;;5032352;28;19919;-69
2022/01/07 07:50:39;;;;;;;;;;;3.90;96.80;;;;;;5041267;28;19913;-69
2022/01/07 07:53:05;;;;;;;;;;;3.90;96.80;;;;;;5060085;28;19912;-69
2022/01/07 07:55:30;;;;;;;;;;;3.90;96.90;;;;;;5049128;28;19913;-69
2022/01/07 07:57:56;;;;;;;;;;;3.90;96.90;;;;;;5031662;28;19919;-69
2022/01/07 08:00:21;;;;;;;;;;;3.90;96.90;;;;;;5031972;28;20011;-69
2022/01/07 08:02:47;;;;;;;;;;;3.90;96.90;;;;;;5048710;28;19951;-69
2022/01/07 08:05:12;;;;;;;;;;;3.90;96.90;;;;;;5044390;28;19932;-69
2022/01/07 08:07:38;;;;;;;;;;;3.90;96.90;;;;;;5051014;28;20362;-69
2022/01/07 08:10:04;;;;;;;;;;;3.90;96.80;;;;;;5041041;28;19912;-69
2022/01/07 08:12:51;;;;;;;;;;;3.90;96.90;;;;;;5056051;28;19920;-69
2022/01/07 08:17:59;;;;;;;;;;;4.00;97.20;;;;;;5051072;28;19917;-69
2022/01/07 08:20:25;;;;;;;;;;;4.00;96.90;;;;;;5056415;28;19912;-69
2022/01/07 08:22:51;;;;;;;;;;;4.00;96.90;;;;;;5055187;28;20478;-69
2022/01/07 08:25:16;;;;;;;;;;;4.00;96.80;;;;;;5053581;28;19927;-69
2022/01/07 08:27:42;;;;;;;;;;;3.90;96.80;;;;;;5048988;28;19913;-69
2022/01/07 08:30:15;;;;;;;;;;;4.00;96.90;;;;;;5049774;28;19916;-69
2022/01/07 08:35:25;;;;;;;;;;;4.00;96.90;;;;;;5048641;28;19936;-69
2022/01/07 08:37:50;;;;;;;;;;;4.00;96.80;;;;;;5049471;28;19912;-69
2022/01/07 08:40:16;;;;;;;;;;;4.00;96.90;;;;;;5049762;28;19944;-69
2022/01/07 08:42:41;;;;;;;;;;;4.00;96.90;;;;;;5056371;28;20426;-69
2022/01/07 08:45:07;;;;;;;;;;;4.00;96.80;;;;;;5050185;28;20000;-69
2022/01/07 08:47:33;;;;;;;;;;;4.00;96.80;;;;;;5048874;28;19913;-69
2022/01/07 08:49:58;;;;;;;;;;;4.00;96.90;;;;;;5048912;28;20305;-69
2022/01/07 08:52:24;;;;;;;;;;;4.00;96.90;;;;;;5051494;28;20330;-69
2022/01/07 08:54:50;;;;;;;;;;;4.00;96.80;;;;;;5064639;28;19920;-69
2022/01/07 08:57:17;;;;;;;;;;;4.00;96.90;;;;;;5049289;28;19912;-69
2022/01/07 08:59:42;;;;;;;;;;;4.10;96.90;;;;;;5050721;28;19920;-69
2022/01/07 09:02:08;;;;;;;;;;;4.00;96.90;;;;;;5047411;28;19917;-69
2022/01/07 09:04:33;;;;;;;;;;;4.00;96.90;;;;;;5048659;28;19920;-69
2022/01/07 09:06:59;;;;;;;;;;;4.00;96.90;;;;;;5036556;28;19920;-69
2022/01/07 09:09:25;;;;;;;;;;;4.00;97.00;;;;;;5031511;28;19916;-69
2022/01/07 09:11:50;;;;;;;;;;;4.10;96.90;;;;;;5048358;28;20267;-69
2022/01/07 09:14:16;;;;;;;;;;;4.00;96.90;;;;;;5049723;28;20270;-69
2022/01/07 09:16:41;;;;;;;;;;;4.10;96.90;;;;;;5057278;28;20313;-69
2022/01/07 09:19:07;;;;;;;;;;;4.10;96.90;;;;;;5047104;28;19913;-69
2022/01/07 09:21:32;;;;;;;;;;;4.10;96.90;;;;;;5046926;28;19916;-69
2022/01/07 09:23:58;;;;;;;;;;;4.10;96.90;;;;;;5055748;28;20754;-69
2022/01/07 09:26:23;;;;;;;;;;;4.10;96.80;;;;;;5049711;28;19913;-69
2022/01/07 09:28:49;;;;;;;;;;;4.20;96.90;;;;;;5055329;28;19962;-69
2022/01/07 09:31:14;;;;;;;;;;;4.20;96.90;;;;;;5036525;28;19963;-69
2022/01/07 09:33:40;;;;;;;;;;;4.20;96.80;;;;;;5054937;28;20015;-69
2022/01/07 09:36:06;;;;;;;;;;;4.20;96.80;;;;;;5057442;28;19916;-69
2022/01/07 09:38:31;;;;;;;;;;;4.20;96.80;;;;;;5052223;28;19916;-69
2022/01/07 09:40:57;;;;;;;;;;;4.30;96.80;;;;;;5053172;28;19921;-69
2022/01/07 09:43:23;;;;;;;;;;;4.30;96.80;;;;;;5049201;28;20395;-69
2022/01/07 09:45:48;;;;;;;;;;;4.30;96.80;;;;;;5053934;28;19916;-69
2022/01/07 09:48:14;;;;;;;;;;;4.30;96.80;;;;;;5053180;28;20015;-69
2022/01/07 09:50:39;;;;;;;;;;;4.30;96.80;;;;;;5053295;28;20023;-69
2022/01/07 09:53:05;;;;;;;;;;;4.30;96.80;;;;;;5043154;28;19917;-69
2022/01/07 09:55:31;;;;;;;;;;;4.30;96.80;;;;;;5055513;28;19912;-69
2022/01/07 09:57:56;;;;;;;;;;;4.30;96.80;;;;;;5069346;28;20462;-69
2022/01/07 10:00:22;;;;;;;;;;;4.30;96.80;;;;;;5057382;28;19921;-69
2022/01/07 10:03:01;;;;;;;;;;;4.30;96.80;;;;;;5054392;28;20400;-69
2022/01/07 10:05:27;;;;;;;;;;;4.40;96.90;;;;;;5051715;28;19913;-69
2022/01/07 10:07:53;;;;;;;;;;;4.30;96.80;;;;;;5069139;28;19913;-69
2022/01/07 10:10:19;;;;;;;;;;;4.30;96.80;;;;;;5039721;28;19913;-69
2022/01/07 10:12:50;;;;;;;;;;;4.40;96.90;;;;;;5059633;28;19912;-69
2022/01/07 10:15:20;;;;;;;;;;;4.40;96.90;;;;;;5046829;28;19917;-69
2022/01/07 10:17:55;;;;;;;;;;;4.30;96.90;;;;;;5055100;28;19966;-69
2022/01/07 10:20:34;;;;;;;;;;;4.40;96.90;;;;;;5058410;28;20620;-69
2022/01/07 10:23:29;;;;;;;;;;;4.40;96.90;;;;;;5067660;28;20317;-69
2022/01/07 10:25:55;;;;;;;;;;;4.40;96.80;;;;;;5025633;28;19912;-69
2022/01/07 10:28:27;;;;;;;;;;;4.40;96.80;;;;;;5058267;28;20352;-69
2022/01/07 10:30:54;;;;;;;;;;;4.40;96.80;;;;;;5058638;28;20357;-69
2022/01/07 10:33:20;;;;;;;;;;;4.40;96.90;;;;;;5057177;28;19923;-69
2022/01/07 10:35:46;;;;;;;;;;;4.40;96.90;;;;;;5047987;28;21004;-69
2022/01/07 10:38:16;;;;;;;;;;;4.50;96.90;;;;;;5051756;28;20354;-69
2022/01/07 10:40:43;;;;;;;;;;;4.50;96.90;;;;;;5050658;28;19912;-69
2022/01/07 10:43:09;;;;;;;;;;;4.50;96.90;;;;;;5036810;28;19927;-69
2022/01/07 10:45:35;;;;;;;;;;;4.50;96.90;;;;;;5051565;28;19959;-69
2022/01/07 10:48:01;;;;;;;;;;;4.50;96.90;;;;;;5054911;28;19962;-69
2022/01/07 10:50:27;;;;;;;;;;;4.50;96.90;;;;;;5057383;28;19912;-69
2022/01/07 10:53:12;;;;;;;;;;;4.50;96.90;;;;;;5056895;28;19944;-69
2022/01/07 10:55:38;;;;;;;;;;;4.60;96.80;;;;;;5057113;28;19913;-69
2022/01/07 10:58:04;;;;;;;;;;;4.60;96.80;;;;;;5053250;28;19909;-69
2022/01/07 11:00:35;;;;;;;;;;;4.60;96.80;;;;;;5052615;28;19920;-69
2022/01/07 11:03:01;;;;;;;;;;;4.50;96.90;;;;;;5059483;28;19913;-69
2022/01/07 11:05:26;;;;;;;;;;;4.60;96.90;;;;;;5052341;28;19962;-69
2022/01/07 11:07:54;;;;;;;;;;;4.60;96.90;;;;;;5054968;28;19916;-69
2022/01/07 11:10:20;;;;;;;;;;;4.60;96.90;;;;;;5037011;28;19919;-69
2022/01/07 11:12:45;;;;;;;;;;;4.60;96.80;;;;;;5050527;28;19909;-69
2022/01/07 11:15:11;;;;;;;;;;;4.60;96.80;;;;;;5047878;28;20327;-69
2022/01/07 11:17:37;;;;;;;;;;;4.60;96.80;;;;;;5030703;28;20366;-69
2022/01/07 11:20:04;;;;;;;;;;;4.70;96.90;;;;;;5058885;28;20323;-69
2022/01/07 11:22:30;;;;;;;;;;;4.70;96.80;;;;;;5055027;28;19938;-69
2022/01/07 11:24:59;;;;;;;;;;;4.70;96.80;;;;;;5053541;28;19927;-69
2022/01/07 11:27:26;;;;;;;;;;;4.70;96.80;;;;;;5030077;28;19913;-69
2022/01/07 11:29:52;;;;;;;;;;;4.70;96.80;;;;;;5048803;28;19913;-69
2022/01/07 11:32:36;;;;;;;;;;;4.70;96.80;;;;;;5047276;28;20377;-71
2022/01/07 11:35:16;;;;;;;;;;;4.70;96.80;;;;;;5046383;28;20008;-68
2022/01/07 11:37:43;;;;;;;;;;;4.80;96.80;;;;;;5059847;28;19913;-68
2022/01/07 11:40:08;;;;;;;;;;;4.80;96.90;;;;;;5055174;28;19917;-68
2022/01/07 11:42:37;;;;;;;;;;;4.80;96.70;;;;;;5048442;28;19921;-68
2022/01/07 11:45:23;;;;;;;;;;;4.80;96.70;;;;;;5055487;28;19999;-69
2022/01/07 11:47:52;;;;;;;;;;;4.80;96.70;;;;;;5047085;28;19924;-69
2022/01/07 11:50:17;;;;;;;;;;;4.80;96.70;;;;;;5047188;28;19912;-68
2022/01/07 11:52:53;;;;;;;;;;;4.90;96.80;;;;;;5047848;28;19959;-68
2022/01/07 11:55:22;;;;;;;;;;;4.80;96.70;;;;;;5050079;28;19939;-69
2022/01/07 11:57:51;;;;;;;;;;;4.90;96.80;;;;;;5049471;28;21658;-68
2022/01/07 12:00:36;;;;;;;;;;;4.90;96.80;;;;;;5032319;28;20374;-69
2022/01/07 12:03:02;;;;;;;;;;;4.90;96.80;;;;;;5072262;28;20031;-68
2022/01/07 12:05:31;;;;;;;;;;;4.90;96.80;;;;;;5050417;28;20003;-68
2022/01/07 12:07:57;;;;;;;;;;;4.90;96.80;;;;;;5055346;28;19923;-68
2022/01/07 12:10:22;;;;;;;;;;;4.90;96.70;;;;;;5068216;28;19999;-69
2022/01/07 12:12:48;;;;;;;;;;;5.00;96.80;;;;;;5048931;28;19919;-69
2022/01/07 12:15:13;;;;;;;;;;;5.00;96.80;;;;;;5048582;28;19909;-68
2022/01/07 12:17:39;;;;;;;;;;;5.00;96.70;;;;;;5050574;28;19920;-68
2022/01/07 12:20:23;;;;;;;;;;;5.00;96.80;;;;;;5049172;28;19913;-68
2022/01/07 12:22:49;;;;;;;;;;;5.00;96.70;;;;;;5055588;28;20408;-69
2022/01/07 12:25:15;;;;;;;;;;;5.00;96.80;;;;;;5034253;28;20388;-69
2022/01/07 12:27:40;;;;;;;;;;;5.00;96.80;;;;;;5054088;28;20007;-68
2022/01/07 12:30:06;;;;;;;;;;;4.90;96.80;;;;;;5049353;28;19913;-69
2022/01/07 12:32:36;;;;;;;;;;;5.00;96.80;;;;;;5030795;28;19920;-68
2022/01/07 12:35:03;;;;;;;;;;;5.00;96.90;;;;;;5043783;28;20369;-69
2022/01/07 12:37:29;;;;;;;;;;;4.90;96.90;;;;;;5052365;28;19913;-69
2022/01/07 12:39:56;;;;;;;;;;;4.90;96.90;;;;;;5047743;28;19990;-68
2022/01/07 12:42:22;;;;;;;;;;;4.90;96.90;;;;;;5049654;28;19923;-68
2022/01/07 12:44:52;;;;;;;;;;;5.00;96.80;;;;;;5049983;28;19916;-68
2022/01/07 12:47:19;;;;;;;;;;;5.00;96.90;;;;;;5039538;28;19916;-69
2022/01/07 12:49:44;;;;;;;;;;;5.00;96.80;;;;;;5050422;28;20405;-69
2022/01/07 12:52:22;;;;;;;;;;;5.00;96.90;;;;;;5049349;28;19917;-69
2022/01/07 12:54:54;;;;;;;;;;;5.00;96.90;;;;;;5039299;28;19956;-69
2022/01/07 12:57:30;;;;;;;;;;;5.00;96.90;;;;;;5046830;28;19917;-69
2022/01/07 13:00:14;;;;;;;;;;;5.00;96.90;;;;;;5048548;28;19959;-69
2022/01/07 13:02:43;;;;;;;;;;;5.00;96.80;;;;;;5051813;28;19951;-69
2022/01/07 13:05:13;;;;;;;;;;;5.00;96.80;;;;;;5044087;28;20387;-69
2022/01/07 13:07:40;;;;;;;;;;;5.10;96.90;;;;;;5048484;28;19932;-68
2022/01/07 13:10:05;;;;;;;;;;;5.10;96.80;;;;;;5050037;28;19912;-69
2022/01/07 13:12:31;;;;;;;;;;;5.10;96.90;;;;;;5050848;28;19974;-69
2022/01/07 13:14:56;;;;;;;;;;;5.10;96.90;;;;;;5050320;28;20452;-69
2022/01/07 13:17:23;;;;;;;;;;;5.10;96.90;;;;;;5049113;28;19920;-68
2022/01/07 13:19:50;;;;;;;;;;;5.10;96.90;;;;;;5054000;28;19913;-69
2022/01/07 13:22:16;;;;;;;;;;;5.10;96.80;;;;;;5055783;28;19908;-69
2022/01/07 13:24:42;;;;;;;;;;;5.10;96.80;;;;;;5049593;28;19940;-69
2022/01/07 13:27:07;;;;;;;;;;;5.10;96.80;;;;;;5047491;28;19998;-68
2022/01/07 13:29:33;;;;;;;;;;;5.10;96.90;;;;;;5059914;28;20257;-69
2022/01/07 13:32:03;;;;;;;;;;;5.10;96.80;;;;;;5051787;28;19974;-68
2022/01/07 13:34:30;;;;;;;;;;;5.10;96.90;;;;;;5051051;28;19924;-68
2022/01/07 13:36:59;;;;;;;;;;;5.10;96.90;;;;;;5050797;28;19921;-68
2022/01/07 13:39:24;;;;;;;;;;;5.10;96.90;;;;;;5051099;28;20374;-68
2022/01/07 13:41:56;;;;;;;;;;;5.10;97.00;;;;;;5045796;28;19920;-69
2022/01/07 13:44:22;;;;;;;;;;;5.10;96.90;;;;;;5027395;28;19924;-69
2022/01/07 13:46:48;;;;;;;;;;;5.10;96.90;;;;;;5053672;28;19917;-68
2022/01/07 13:49:15;;;;;;;;;;;5.10;97.00;;;;;;5047723;28;19936;-68
2022/01/07 13:51:49;;;;;;;;;;;5.10;97.00;;;;;;5055695;28;20399;-69
2022/01/07 13:54:15;;;;;;;;;;;5.10;96.90;;;;;;5052439;28;19924;-68
2022/01/07 13:56:45;;;;;;;;;;;5.10;96.90;;;;;;5048393;28;19917;-69
2022/01/07 13:59:12;;;;;;;;;;;5.10;97.00;;;;;;5047270;28;19913;-69
2022/01/07 14:01:52;;;;;;;;;;;5.10;97.00;;;;;;5050513;28;19913;-68
2022/01/07 14:04:20;;;;;;;;;;;5.10;97.00;;;;;;5047849;28;19916;-69
2022/01/07 14:06:47;;;;;;;;;;;5.10;97.00;;;;;;5050733;28;20552;-69
2022/01/07 14:09:18;;;;;;;;;;;5.10;97.00;;;;;;5047933;28;19925;-69
2022/01/07 14:12:02;;;;;;;;;;;5.10;97.00;;;;;;5055844;28;19917;-69
2022/01/07 14:14:35;;;;;;;;;;;5.10;97.00;;;;;;5052569;28;19940;-69
2022/01/07 14:17:06;;;;;;;;;;;5.10;97.10;;;;;;5051253;28;19919;-68
2022/01/07 14:19:51;;;;;;;;;;;5.10;97.10;;;;;;5049900;28;20436;-69
2022/01/07 14:22:16;;;;;;;;;;;5.10;97.10;;;;;;5051644;28;19917;-68
2022/01/07 14:24:42;;;;;;;;;;;5.10;97.10;;;;;;5038174;28;19917;-68
2022/01/07 14:27:07;;;;;;;;;;;5.20;97.20;;;;;;5056255;28;20348;-68
2022/01/07 14:29:33;;;;;;;;;;;5.10;97.10;;;;;;5037955;28;19917;-68
2022/01/07 14:31:58;;;;;;;;;;;5.10;97.20;;;;;;5053129;28;19913;-68
2022/01/07 14:34:24;;;;;;;;;;;5.10;97.20;;;;;;5052351;28;19928;-68
2022/01/07 14:36:49;;;;;;;;;;;5.10;97.20;;;;;;5057436;28;19913;-68
2022/01/07 14:39:15;;;;;;;;;;;5.10;97.20;;;;;;5061936;28;19919;-68